LDRILDZD

Guest
Details From LDRI - RIJEKA
To LDZD - ZADAR
Flight Number -
Tags generated
Created
Modified
Stats Distance 76 nm / 141 km
Max Altitude 100 ft / 30 m
Waypoints 3
Social Downloads 0
Likes 0
Share VATSIM

Download

Looking for another format? Having issues loading an existing format? Contact us
Advertisement - Login to hide

Notes

Basic altitude profile: - Ascent Rate: 2500ft/min - Ascent Speed: 250kts - Cruise Altitude: 35000ft - Cruise Speed: 420kts - Descent Rate: 1500ft/min - Descent Speed: 250kts Options: - Use NATs: yes - Use PACOTS: yes - Use low airways: yes - Use high airways: no

Route

LDRI RJK LDZD

ID Type Via Altitude Latitude Longitude Leg Dist Tot Dist Heading (true) Name
O LDRI APT - 0 ft / 0 m 45.21663˚ 14.57081˚ - 0 nm - RIJEKA
RJK VOR - 100 ft / 30 m 45.22412˚ 14.56696˚ 0 nm 0 nm 340° / 340° RIJEKA VOR-DME
O LDZD APT - 0 ft / 0 m 44.09723˚ 15.34798˚ 75 nm 75 nm 153° / 154° ZADAR

Altitude Profile

Advertisement - Login to hide

LDRI

Details ICAO LDRI (RJK)
Name RIJEKA
Region Croatia
Timezone Europe/Zagreb (UTC+2.0)
Stats Elevation 278 ft / 85 m (AMSL)
Location 45.216635° 14.570813°
Runways 1
Magnetic Variation 3.673° E

METAR

LDRI 250700Z VRB02KT CAVOK 24/17 Q1015

Decode

TAF

TAF LDRI 250525Z 2506/2606 06006KT CAVOK TX28/2512Z TN18/2604Z TEMPO 2508/2516 32007KT PROB30 TEMPO 2513/2517 TS FEW030CB

Decode

Departure Runways

ID Width Length Bearing (true) Bearing (mag) Surface Threshold Offset Overrun Length
14 148 ft / 45 m 8,161 ft / 2,488 m 143.77° 140.10° Asphalt 0 ft / 0 m 0 ft / 0 m
32 148 ft / 45 m 8,161 ft / 2,488 m 323.78° 320.11° Asphalt 0 ft / 0 m 0 ft / 0 m

LDZD

Details ICAO LDZD (ZAD)
Name ZADAR
Region Croatia
Timezone Europe/Zagreb (UTC+2.0)
Stats Elevation 289 ft / 88 m (AMSL)
Location 44.097225° 15.347978°
Runways 2
Magnetic Variation 3.749° E

METAR

LDZD 250700Z 16003KT 100V240 CAVOK 24/17 Q1014 NOSIG

Decode

TAF

TAF LDZD 250525Z 2506/2606 16004KT 9999 FEW040 TX28/2511Z TN16/2604Z BECMG 2509/2511 30009KT TEMPO 2511/2514 30012KT PROB30 TEMPO 2511/2514 FEW033CB FEW035TCU BECMG 2516/2518 VRB02KT PROB30 TEMPO 2602/2604 3000 MIFG

Decode

Destination Runways

ID Width Length Bearing (true) Bearing (mag) Surface Threshold Offset Overrun Length
04 147 ft / 45 m 6,519 ft / 1,987 m 41.52° 37.77° Asphalt 0 ft / 0 m 0 ft / 0 m
14 147 ft / 45 m 8,159 ft / 2,487 m 135.79° 132.04° Asphalt 0 ft / 0 m 0 ft / 0 m
22 147 ft / 45 m 6,519 ft / 1,987 m 221.53° 217.78° Asphalt 0 ft / 0 m 0 ft / 0 m
32 147 ft / 45 m 8,159 ft / 2,487 m 315.81° 312.06° Asphalt 0 ft / 0 m 0 ft / 0 m

Approach Navaids

Runway Type Ident Frequency Range Bearing (true) Bearing (mag) Slope Elevation
14 Localiser IZD 110.10 MHz 25 nm / 46 km 135.69° 131.94° - 246 ft / 75 m (AMSL)
14 Glidescope IZD 110.10 MHz 25 nm / 46 km 135.69° 131.94° 3.00° 236 ft / 72 m (AMSL)